Latitude: N 50° 09' 49" Longitude: W 05° 11' 53" Elevation: 168m ASL

There are 27 visitors online

Adverts
Latest METAR Data

Below are the latest METARs ("Meteorological Services to Airmen Reports"), for RNAS Culdrose and Newquay Airport.

EGDR - RNAS Culdrose
Distance from station: SW 6mi, 9km
Updated: Tue, 20-Feb-2018 4:50pm GMT
Few Clouds
Few Clouds
 Wind from N
Wind: N 21 mph , 33 km/h, Gust: 32 mph , 52 km/h
Temperature: 46°F , 8°C
Wind Chill: 38°F , 3°C
Dew Point: 39°F , 4°C
Humidity: 76%
Barometer: 30.3 inHg , 1026 hPa
Clouds: Few Clouds
Visibility: 6 miles , 10 km
Cloud details: Few Clouds 1800 ft
2018/02/20 16:50 EGDR 201650Z 36018G28KT 9999 FEW018 08/04 Q1026 BLU TEMPO SCT018 WHT
EGHQ - Newquay Airport
Distance from station: NE 21mi, 34km
Updated: Tue, 20-Feb-2018 5:50pm GMT
Partly Cloudy
Partly Cloudy
 Wind from N
Wind: N 17 mph , 28 km/h
Temperature: 43°F , 6°C
Wind Chill: 35°F , 2°C
Dew Point: 39°F , 4°C
Humidity: 87%
Barometer: 30.3 inHg , 1026 hPa
Clouds: Partly Cloudy
Visibility: 6 miles , 10 km
Cloud details: Partly Cloudy 1500 ft
2018/02/20 17:50 EGHQ 201750Z 36015KT 9999 SCT015 06/04 Q1026
 
EGTE - Exeter Airport
Distance from station: ENE 88mi, 141km
Updated: Tue, 20-Feb-2018 5:50pm GMT
Clear
Clear
 Wind from NNW
Wind: NNW 12 mph , 19 km/h
Temperature: 45°F , 7°C
Wind Chill: 39°F , 4°C
Dew Point: 36°F , 2°C
Humidity: 71%
Barometer: 30.24 inHg , 1024 hPa
Summary: Clear
Visibility: greater than 7 miles , 10 km
2018/02/20 17:50 EGTE 201750Z 33010KT CAVOK 07/02 Q1024
EGHE - St Marys, IOS
Distance from station: W 51mi, 82km
Updated: Tue, 20-Feb-2018 5:20pm GMT
Few Clouds
Few Clouds
 Wind from N
Wind: N 17 mph , 28 km/h
Temperature: 46°F , 8°C
Wind Chill: 39°F , 4°C
Dew Point: 39°F , 4°C
Humidity: 76%
Barometer: 30.36 inHg , 1028 hPa
Clouds: Few Clouds
Visibility: 6 miles , 10 km
Cloud details: Few Clouds 2100 ft
2018/02/20 17:20 EGHE 201720Z 01015KT 9999 FEW021 08/04 Q1028

Metar display script from Saratoga-Weather.org

UK - WEATHER STATION TOPSITES - UK World Weather Websites

This is a private weather station, never base important decisions or events on data from this weather station. Although every effort has been made to make the data as accurate as possible it does not meet MetOffice standards. It is proved as a guide of local weather conditions. We accept no liability for any loss which may arise from use of the data.

Copyright © Carnkie Weather 2009 - 2018.